Time;durP1;ratioP1;P1;durP2;ratioP2;P2;SDS_P1;SDS_P2;PMS_P1;PMS_P2;Temp;Humidity;BMP_temperature;BMP_pressure;BME280_temperature;BME280_humidity;BME280_pressure;Samples;Min_cycle;Max_cycle;Signal;HPM_P1;HPM_P2
2022/03/19 00:01:55;;;;;;;9.23;2.80;;;;;;;3.60;100.00;98982.19;5027703;28;20038;-72
2022/03/19 00:04:21;;;;;;;5.60;2.03;;;;;;;3.57;100.00;98993.88;5025220;28;20452;-71
2022/03/19 00:06:47;;;;;;;9.45;2.92;;;;;;;3.53;100.00;98981.94;5030032;28;20091;-72
2022/03/19 00:09:13;;;;;;;10.98;2.58;;;;;;;3.55;100.00;98987.91;5027162;28;20049;-70
2022/03/19 00:11:39;;;;;;;6.38;3.25;;;;;;;3.59;100.00;98989.31;5030343;28;20124;-72
2022/03/19 00:14:05;;;;;;;12.15;5.28;;;;;;;3.54;100.00;98986.25;5026913;28;20049;-72
2022/03/19 00:16:31;;;;;;;7.15;2.88;;;;;;;3.53;100.00;98987.22;5029365;28;20044;-71
2022/03/19 00:18:56;;;;;;;9.77;3.40;;;;;;;3.52;100.00;98993.50;5028751;28;20124;-70
2022/03/19 00:21:22;;;;;;;8.35;3.00;;;;;;;3.49;100.00;99000.88;5029030;28;20044;-71
2022/03/19 00:23:48;;;;;;;12.20;2.70;;;;;;;3.45;100.00;98997.69;5027963;28;20049;-70
2022/03/19 00:26:14;;;;;;;10.07;2.97;;;;;;;3.50;100.00;98990.16;5029570;28;20045;-71
2022/03/19 00:28:41;;;;;;;8.45;2.80;;;;;;;3.48;100.00;98994.75;5029844;28;20048;-71
2022/03/19 00:31:07;;;;;;;10.57;2.83;;;;;;;3.38;100.00;98993.94;5029358;28;20058;-72
2022/03/19 00:33:33;;;;;;;11.32;2.80;;;;;;;3.29;100.00;98998.25;5032208;28;20056;-70
2022/03/19 00:35:58;;;;;;;9.60;3.28;;;;;;;3.27;100.00;99005.53;5029017;28;20037;-70
2022/03/19 00:38:24;;;;;;;10.15;2.88;;;;;;;3.26;100.00;98992.41;5033895;28;20033;-72
2022/03/19 00:40:51;;;;;;;8.63;2.65;;;;;;;3.25;100.00;98990.75;5034139;28;20083;-70
2022/03/19 00:43:19;;;;;;;8.70;2.67;;;;;;;3.23;100.00;98990.88;5031332;28;20116;-71
2022/03/19 00:45:48;;;;;;;7.97;2.75;;;;;;;3.26;100.00;98997.69;5033111;28;20029;-71
2022/03/19 00:48:15;;;;;;;8.52;2.72;;;;;;;3.22;100.00;98993.69;5027742;28;20048;-71
2022/03/19 00:50:40;;;;;;;6.53;2.67;;;;;;;3.25;100.00;98990.75;5032715;28;20072;-70
2022/03/19 00:53:06;;;;;;;6.65;2.40;;;;;;;3.21;100.00;98986.72;5030434;28;20036;-71
2022/03/19 00:55:32;;;;;;;11.30;2.67;;;;;;;3.16;100.00;98983.66;5031476;28;20041;-71
2022/03/19 00:57:57;;;;;;;8.10;2.80;;;;;;;3.10;100.00;98982.38;5031843;28;20028;-70
2022/03/19 01:00:25;;;;;;;7.97;2.70;;;;;;;3.12;100.00;98992.84;5030418;28;20476;-70
2022/03/19 01:02:51;;;;;;;10.13;2.72;;;;;;;3.07;100.00;98983.50;5032063;28;20295;-70
2022/03/19 01:05:17;;;;;;;5.80;2.42;;;;;;;3.03;100.00;98984.75;5027201;28;20045;-70
2022/03/19 01:07:45;;;;;;;8.43;2.70;;;;;;;3.01;100.00;98978.78;5032242;28;20380;-71
2022/03/19 01:10:14;;;;;;;9.50;2.95;;;;;;;3.02;100.00;98979.59;5028441;28;20037;-70
2022/03/19 01:12:41;;;;;;;8.43;3.67;;;;;;;2.98;100.00;98973.78;5032700;28;20041;-72
2022/03/19 01:15:07;;;;;;;9.27;2.88;;;;;;;2.96;100.00;98974.91;5031947;28;20538;-71
2022/03/19 01:17:33;;;;;;;9.55;3.22;;;;;;;2.94;100.00;98969.72;5030645;28;20029;-70
2022/03/19 01:19:59;;;;;;;9.77;2.95;;;;;;;2.95;100.00;98970.56;5029011;28;20460;-70
2022/03/19 01:22:26;;;;;;;7.55;2.58;;;;;;;2.92;100.00;98971.69;5030887;28;20034;-72
2022/03/19 01:24:52;;;;;;;9.68;2.65;;;;;;;2.98;100.00;98965.84;5030298;28;20453;-70
2022/03/19 01:27:18;;;;;;;9.15;2.38;;;;;;;2.95;100.00;98966.09;5030882;28;20041;-70
2022/03/19 01:29:43;;;;;;;7.78;2.65;;;;;;;2.97;100.00;98956.22;5028646;28;20064;-70
2022/03/19 01:32:09;;;;;;;8.95;2.75;;;;;;;2.99;100.00;98970.16;5027848;28;20144;-72
2022/03/19 01:34:36;;;;;;;8.93;2.85;;;;;;;2.89;100.00;98958.75;5033146;28;20041;-71
2022/03/19 01:37:02;;;;;;;7.13;2.15;;;;;;;2.82;100.00;98954.97;5030870;28;20037;-70
2022/03/19 01:39:28;;;;;;;11.55;2.97;;;;;;;2.86;100.00;98969.56;5031711;28;20037;-70
2022/03/19 01:41:54;;;;;;;9.60;2.80;;;;;;;2.79;100.00;98963.16;5027386;28;20041;-70
2022/03/19 01:44:21;;;;;;;6.82;2.58;;;;;;;2.79;100.00;98956.06;5029071;28;20917;-70
2022/03/19 01:47:00;;;;;;;6.32;2.10;;;;;;;2.83;100.00;98946.06;5031602;28;20287;-72
2022/03/19 01:49:26;;;;;;;5.72;2.22;;;;;;;2.84;100.00;98957.47;5029293;28;20459;-71
2022/03/19 01:51:52;;;;;;;4.47;1.92;;;;;;;2.79;100.00;98945.50;5029365;28;20044;-70
2022/03/19 01:54:25;;;;;;;8.35;2.67;;;;;;;2.78;100.00;98948.28;5029961;28;20037;-72
2022/03/19 01:56:52;;;;;;;11.13;2.85;;;;;;;2.77;100.00;98950.09;5032586;28;20388;-72
2022/03/19 01:59:19;;;;;;;8.45;2.55;;;;;;;2.72;100.00;98943.53;5030000;28;20029;-70
2022/03/19 02:01:45;;;;;;;8.27;2.80;;;;;;;2.68;100.00;98944.81;5035892;28;20651;-70
2022/03/19 02:04:10;;;;;;;8.88;2.80;;;;;;;2.71;100.00;98941.88;5015401;28;20054;-72
2022/03/19 02:06:37;;;;;;;8.75;2.47;;;;;;;2.73;100.00;98926.72;5015424;28;20038;-72
2022/03/19 02:09:03;;;;;;;9.93;2.45;;;;;;;2.73;100.00;98939.94;5014967;28;20087;-72
2022/03/19 02:11:29;;;;;;;6.43;2.20;;;;;;;2.69;100.00;98931.44;5018183;28;20033;-72
2022/03/19 02:13:55;;;;;;;8.50;2.72;;;;;;;2.74;100.00;98923.09;5016686;28;20041;-72
2022/03/19 02:16:20;;;;;;;10.90;2.33;;;;;;;2.69;100.00;98926.16;5015880;28;20037;-70
2022/03/19 02:18:46;;;;;;;8.80;2.85;;;;;;;2.66;100.00;98934.38;5014522;28;20112;-71
2022/03/19 02:21:12;;;;;;;12.82;3.00;;;;;;;2.66;100.00;98925.59;5015195;28;20385;-72
2022/03/19 02:26:21;;;;;;;9.65;2.53;;;;;;;2.65;100.00;98923.94;5015845;28;20343;-71
2022/03/19 02:28:47;;;;;;;9.05;2.67;;;;;;;2.58;100.00;98920.19;5016560;28;20673;-71
2022/03/19 02:31:13;;;;;;;11.20;2.97;;;;;;;2.55;100.00;98915.16;5020958;28;20323;-70
2022/03/19 02:33:38;;;;;;;11.77;2.33;;;;;;;2.57;100.00;98906.13;5030139;28;20179;-71
2022/03/19 02:36:05;;;;;;;8.00;2.83;;;;;;;2.53;100.00;98912.66;5029319;28;20124;-72
2022/03/19 02:38:30;;;;;;;7.88;2.45;;;;;;;2.49;100.00;98908.59;5033347;28;20041;-70
2022/03/19 02:40:56;;;;;;;6.55;2.45;;;;;;;2.43;100.00;98907.38;5027027;28;20064;-72
2022/03/19 02:43:21;;;;;;;9.85;2.15;;;;;;;2.48;100.00;98907.75;5028761;28;20051;-70
2022/03/19 02:45:47;;;;;;;9.85;2.53;;;;;;;2.43;100.00;98907.38;5029714;28;20364;-70
2022/03/19 02:48:13;;;;;;;10.52;3.00;;;;;;;2.38;100.00;98900.81;5028615;28;20037;-70
2022/03/19 02:50:39;;;;;;;11.77;2.60;;;;;;;2.42;100.00;98907.50;5030346;28;20095;-70
2022/03/19 02:53:07;;;;;;;9.52;2.47;;;;;;;2.43;100.00;98901.25;5028518;28;20041;-70
2022/03/19 02:55:38;;;;;;;6.93;2.45;;;;;;;2.40;100.00;98904.97;5029682;28;20076;-72
2022/03/19 02:58:06;;;;;;;7.85;2.40;;;;;;;2.33;100.00;98895.94;5030276;28;20388;-70
2022/03/19 03:00:32;;;;;;;7.43;2.40;;;;;;;2.27;100.00;98896.50;5027709;28;20037;-70
2022/03/19 03:02:58;;;;;;;12.43;2.50;;;;;;;2.29;100.00;98894.53;5025952;28;20048;-71
2022/03/19 03:05:24;;;;;;;7.82;2.38;;;;;;;2.23;100.00;98898.56;5034648;28;20049;-70
2022/03/19 03:07:50;;;;;;;10.23;2.53;;;;;;;2.23;100.00;98895.91;5027899;28;20044;-72
2022/03/19 03:10:17;;;;;;;10.57;2.80;;;;;;;2.19;100.00;98893.69;5028512;28;20044;-71
2022/03/19 03:12:42;;;;;;;6.90;2.38;;;;;;;2.14;100.00;98896.75;5029842;28;20238;-69
2022/03/19 03:15:09;;;;;;;7.72;2.35;;;;;;;2.12;100.00;98888.13;5028346;28;20075;-70
2022/03/19 03:17:36;;;;;;;11.98;2.70;;;;;;;2.09;100.00;98892.81;5029850;28;20431;-70
2022/03/19 03:20:03;;;;;;;9.27;2.72;;;;;;;2.10;100.00;98889.22;5028987;28;20037;-72
2022/03/19 03:22:29;;;;;;;7.05;2.95;;;;;;;2.11;100.00;98885.63;5028532;28;20111;-70
2022/03/19 03:24:55;;;;;;;8.25;3.00;;;;;;;2.03;100.00;98881.03;5028141;28;20029;-70
2022/03/19 03:27:21;;;;;;;6.60;2.35;;;;;;;2.03;100.00;98878.38;5027833;28;20037;-71
2022/03/19 03:29:46;;;;;;;11.55;3.03;;;;;;;2.03;100.00;98869.63;5024911;28;20040;-71
2022/03/19 03:32:12;;;;;;;8.57;2.72;;;;;;;2.02;100.00;98870.56;5027440;28;20071;-70
2022/03/19 03:34:38;;;;;;;9.68;2.95;;;;;;;2.00;100.00;98875.16;5033171;28;20547;-70
2022/03/19 03:37:04;;;;;;;6.10;2.95;;;;;;;1.93;100.00;98873.06;5030300;28;20041;-71
2022/03/19 03:39:30;;;;;;;7.40;2.53;;;;;;;1.92;100.00;98878.47;5028731;28;20036;-72
2022/03/19 03:41:56;;;;;;;11.38;2.90;;;;;;;1.96;100.00;98877.25;5030987;28;20033;-71
2022/03/19 03:44:22;;;;;;;9.70;2.85;;;;;;;2.02;100.00;98873.22;5026258;28;20538;-70
2022/03/19 03:46:48;;;;;;;6.68;2.40;;;;;;;2.07;100.00;98871.00;5030675;28;20041;-72
2022/03/19 03:49:13;;;;;;;6.07;2.58;;;;;;;2.00;100.00;98869.88;5028358;28;20407;-70
2022/03/19 03:51:39;;;;;;;6.80;2.55;;;;;;;1.98;100.00;98863.91;5028787;28;20155;-70
2022/03/19 03:54:06;;;;;;;7.53;2.33;;;;;;;1.98;100.00;98855.97;5026389;28;20033;-71
2022/03/19 03:56:31;;;;;;;8.20;2.60;;;;;;;2.04;100.00;98858.09;5028643;28;20225;-71
2022/03/19 03:58:57;;;;;;;7.22;2.75;;;;;;;1.98;100.00;98848.88;5029270;28;20059;-70
2022/03/19 04:01:23;;;;;;;7.93;2.60;;;;;;;1.95;100.00;98857.94;5025442;28;20045;-69
2022/03/19 04:03:48;;;;;;;8.98;2.72;;;;;;;1.92;100.00;98852.06;5029903;28;20131;-70
2022/03/19 04:06:14;;;;;;;8.65;2.70;;;;;;;1.94;100.00;98848.31;5030795;28;20072;-69
2022/03/19 04:08:40;;;;;;;9.60;2.70;;;;;;;2.01;100.00;98850.41;5030809;28;20045;-72
2022/03/19 04:11:05;;;;;;;9.00;2.60;;;;;;;1.98;100.00;98848.06;5033605;28;20091;-70
2022/03/19 04:13:31;;;;;;;6.85;2.40;;;;;;;1.98;100.00;98842.78;5032269;28;20120;-71
2022/03/19 04:15:56;;;;;;;6.30;2.33;;;;;;;2.06;100.00;98850.84;5032957;28;20088;-70
2022/03/19 04:18:22;;;;;;;6.00;2.47;;;;;;;2.11;100.00;98846.00;5030673;28;20032;-71
2022/03/19 04:20:47;;;;;;;7.80;2.13;;;;;;;2.13;100.00;98842.25;5031755;28;20352;-69
2022/03/19 04:23:13;;;;;;;8.65;2.80;;;;;;;2.09;100.00;98847.91;5031300;28;20048;-70
2022/03/19 04:25:40;;;;;;;9.57;2.80;;;;;;;2.06;100.00;98850.84;5032514;28;20713;-70
2022/03/19 04:28:05;;;;;;;8.60;2.72;;;;;;;2.03;100.00;98841.41;5035025;28;20041;-70
2022/03/19 04:30:31;;;;;;;7.43;2.60;;;;;;;2.03;100.00;98840.56;5032808;28;20291;-70
2022/03/19 04:33:04;;;;;;;9.18;2.30;;;;;;;1.93;100.00;98841.38;5033063;28;20407;-71
2022/03/19 04:38:17;;;;;;;11.95;2.70;;;;;;;1.92;100.00;98842.34;5029402;28;20048;-70
2022/03/19 04:40:45;;;;;;;10.35;2.80;;;;;;;1.92;100.00;98837.06;5030381;28;20136;-70
2022/03/19 04:43:11;;;;;;;9.07;2.75;;;;;;;1.88;100.00;98835.66;5030616;28;20164;-69
2022/03/19 04:45:38;;;;;;;9.40;2.58;;;;;;;1.83;100.00;98840.50;5034519;28;20580;-70
2022/03/19 04:48:05;;;;;;;6.30;2.53;;;;;;;1.87;100.00;98835.81;5031965;28;20069;-71
2022/03/19 04:50:34;;;;;;;8.52;2.20;;;;;;;1.82;100.00;98830.94;5033628;28;20063;-69
2022/03/19 04:53:00;;;;;;;7.53;2.17;;;;;;;1.83;100.00;98824.69;5029997;28;20561;-70
2022/03/19 04:55:26;;;;;;;6.75;2.70;;;;;;;1.87;100.00;98828.72;5032528;28;20030;-69
2022/03/19 04:57:51;;;;;;;8.25;2.75;;;;;;;1.84;100.00;98825.50;5032112;28;20487;-71
2022/03/19 05:00:20;;;;;;;11.07;2.55;;;;;;;1.79;100.00;98818.00;5028573;28;20108;-70
2022/03/19 05:02:45;;;;;;;12.98;2.80;;;;;;;1.76;100.00;98833.28;5016828;28;20045;-70
2022/03/19 05:05:11;;;;;;;16.17;3.20;;;;;;;1.75;100.00;98834.25;5012735;28;20107;-71
2022/03/19 05:07:37;;;;;;;5.68;2.13;;;;;;;1.76;100.00;98834.09;5012652;28;20898;-71
2022/03/19 05:12:52;;;;;;;5.00;2.08;;;;;;;1.79;100.00;98828.56;5012093;28;20057;-69
2022/03/19 05:15:19;;;;;;;8.20;2.65;;;;;;;1.83;100.00;98831.75;5011963;28;20083;-70
2022/03/19 05:17:45;;;;;;;8.13;2.70;;;;;;;1.79;100.00;98841.78;5013424;28;20954;-70
2022/03/19 05:20:12;;;;;;;12.98;3.10;;;;;;;1.73;100.00;98829.09;5012054;28;20252;-70
2022/03/19 05:22:38;;;;;;;10.10;3.13;;;;;;;1.72;100.00;98834.53;5011975;28;20120;-71
2022/03/19 05:25:05;;;;;;;8.23;2.92;;;;;;;1.72;100.00;98838.00;5012310;28;20032;-70
2022/03/19 05:27:31;;;;;;;7.50;3.03;;;;;;;1.69;100.00;98838.25;5014971;28;20069;-70
2022/03/19 05:29:57;;;;;;;10.27;3.50;;;;;;;1.70;100.00;98834.63;5012154;28;20514;-69
2022/03/19 05:32:23;;;;;;;9.70;3.50;;;;;;;1.72;100.00;98832.72;5028606;28;20067;-70
2022/03/19 05:34:49;;;;;;;9.27;2.83;;;;;;;1.72;100.00;98829.25;5032631;28;20116;-71
2022/03/19 05:37:15;;;;;;;11.10;3.83;;;;;;;1.72;100.00;98840.63;5029947;28;20250;-69
2022/03/19 05:39:42;;;;;;;8.30;3.10;;;;;;;1.70;100.00;98839.91;5033759;28;20029;-70
2022/03/19 05:42:08;;;;;;;9.10;2.92;;;;;;;1.71;100.00;98838.09;5029330;28;20164;-71
2022/03/19 05:44:34;;;;;;;9.02;3.03;;;;;;;1.79;100.00;98838.28;5033209;28;20741;-70
2022/03/19 05:47:00;;;;;;;8.43;3.20;;;;;;;1.83;100.00;98831.75;5030782;28;20268;-70
2022/03/19 05:49:26;;;;;;;11.30;3.22;;;;;;;1.88;100.00;98829.56;5031945;28;20032;-69
2022/03/19 05:51:53;;;;;;;10.88;2.75;;;;;;;1.94;100.00;98829.81;5030949;28;20451;-70
2022/03/19 05:54:18;;;;;;;11.32;3.53;;;;;;;2.04;100.00;98831.66;5031354;28;20037;-71
2022/03/19 05:56:44;;;;;;;13.98;4.32;;;;;;;2.03;100.00;98830.00;5033059;28;20488;-70
2022/03/19 05:59:09;;;;;;;11.90;3.67;;;;;;;2.06;100.00;98830.56;5029990;28;20028;-71
2022/03/19 06:01:35;;;;;;;18.63;4.38;;;;;;;2.04;100.00;98831.66;5032365;28;20036;-69
2022/03/19 06:04:01;;;;;;;11.07;4.25;;;;;;;2.08;100.00;98846.25;5030758;28;20479;-69
2022/03/19 06:06:29;;;;;;;9.18;3.78;;;;;;;2.09;100.00;98840.84;5027873;28;20037;-71
2022/03/19 06:08:55;;;;;;;11.43;4.43;;;;;;;2.12;100.00;98834.47;5026928;28;20037;-69
2022/03/19 06:11:21;;;;;;;9.55;3.90;;;;;;;2.16;100.00;98844.59;5032024;28;20075;-70
2022/03/19 06:13:47;;;;;;;8.65;3.20;;;;;;;2.19;100.00;98830.31;5029072;28;20069;-70
2022/03/19 06:16:12;;;;;;;9.23;3.25;;;;;;;2.17;100.00;98837.50;5029707;28;20094;-71
2022/03/19 06:18:38;;;;;;;13.15;3.70;;;;;;;2.21;100.00;98838.91;5031328;28;20047;-70
2022/03/19 06:21:04;;;;;;;9.02;3.28;;;;;;;2.24;100.00;98823.59;5028183;28;20103;-70
2022/03/19 06:23:30;;;;;;;12.25;3.58;;;;;;;2.22;100.00;98815.00;5029259;28;20033;-69
2022/03/19 06:25:56;;;;;;;7.10;2.83;;;;;;;2.30;100.00;98824.88;5031873;28;20401;-71
2022/03/19 06:28:22;;;;;;;12.85;3.50;;;;;;;2.41;100.00;98816.81;5028706;28;20045;-69
2022/03/19 06:30:48;;;;;;;13.38;3.45;;;;;;;2.44;100.00;98823.63;5031862;28;20483;-69
2022/03/19 06:33:14;;;;;;;16.17;4.80;;;;;;;2.55;100.00;98823.47;5028774;28;20033;-70
2022/03/19 06:38:30;;;;;;;12.00;4.05;;;;;;;2.69;100.00;98819.56;5028484;28;20091;-71
2022/03/19 06:40:58;;;;;;;11.00;3.47;;;;;;;2.77;100.00;98819.69;5030377;28;20037;-71
2022/03/19 06:43:24;;;;;;;5.65;2.47;;;;;;;2.83;100.00;98819.13;5029277;28;20037;-70
2022/03/19 06:45:50;;;;;;;9.55;4.18;;;;;;;2.84;100.00;98815.50;5028704;28;20040;-71
2022/03/19 06:48:16;;;;;;;9.35;3.55;;;;;;;2.91;100.00;98816.59;5026360;28;20064;-69
2022/03/19 06:50:42;;;;;;;9.88;3.83;;;;;;;2.95;100.00;98822.44;5031791;28;20025;-69
2022/03/19 06:53:08;;;;;;;12.30;4.15;;;;;;;3.01;100.00;98822.69;5030742;28;20432;-70
2022/03/19 06:55:33;;;;;;;8.57;3.90;;;;;;;3.14;100.00;98816.28;5028623;28;20038;-70
2022/03/19 06:57:59;;;;;;;7.65;3.30;;;;;;;3.19;100.00;98832.53;5029305;28;20468;-69
2022/03/19 07:00:25;;;;;;;11.55;3.80;;;;;;;3.23;100.00;98825.97;5030097;28;20104;-69
2022/03/19 07:02:53;;;;;;;13.85;3.95;;;;;;;3.30;100.00;98822.63;5029537;28;20048;-70
2022/03/19 07:05:23;;;;;;;11.73;3.60;;;;;;;3.31;100.00;98828.75;5028173;28;20139;-70
2022/03/19 07:07:49;;;;;;;8.73;3.30;;;;;;;3.36;100.00;98839.75;5028762;28;20036;-70
2022/03/19 07:10:16;;;;;;;15.48;3.58;;;;;;;3.37;100.00;98832.63;5029704;28;20044;-71
2022/03/19 07:12:49;;;;;;;11.60;3.92;;;;;;;3.41;100.00;98828.69;5027751;28;20068;-72
2022/03/19 07:15:16;;;;;;;9.13;3.10;;;;;;;3.44;100.00;98831.06;5027092;28;20479;-69
2022/03/19 07:17:43;;;;;;;9.82;3.38;;;;;;;3.47;100.00;98833.41;5029708;28;20067;-70
2022/03/19 07:20:19;;;;;;;13.50;4.32;;;;;;;3.51;100.00;98840.09;5028862;28;20037;-71
2022/03/19 07:22:48;;;;;;;7.47;3.63;;;;;;;3.49;100.00;98829.63;5028319;28;20080;-70
2022/03/19 07:25:14;;;;;;;15.15;4.90;;;;;;;3.56;100.00;98837.81;5029798;28;20262;-71
2022/03/19 07:27:39;;;;;;;12.77;3.83;;;;;;;3.57;100.00;98824.44;5029215;28;20081;-70
2022/03/19 07:30:06;;;;;;;10.63;3.88;;;;;;;3.63;100.00;98839.75;5030320;28;20573;-70
2022/03/19 07:32:32;;;;;;;13.25;4.40;;;;;;;3.62;100.00;98839.91;5027086;28;20084;-70
2022/03/19 07:34:59;;;;;;;7.15;3.50;;;;;;;3.72;100.00;98843.31;5027618;28;20037;-72
2022/03/19 07:37:25;;;;;;;7.10;3.25;;;;;;;3.77;100.00;98841.06;5028223;28;20037;-70
2022/03/19 07:39:50;;;;;;;8.05;3.38;;;;;;;3.80;100.00;98837.28;5031732;28;20029;-70
2022/03/19 07:42:17;;;;;;;9.02;3.92;;;;;;;3.82;100.00;98846.78;5035296;28;20422;-71
2022/03/19 07:44:42;;;;;;;11.07;3.97;;;;;;;3.88;100.00;98842.69;5032837;28;20041;-70
2022/03/19 07:47:08;;;;;;;10.07;4.00;;;;;;;3.93;100.00;98848.38;5033913;28;20037;-71
2022/03/19 07:49:34;;;;;;;10.32;2.45;;;;;;;3.91;100.00;98834.47;5030600;28;20049;-71
2022/03/19 07:52:05;;;;;;;8.88;3.55;;;;;;;3.96;100.00;98844.59;5032137;28;20439;-70
2022/03/19 07:54:31;;;;;;;6.90;3.83;;;;;;;4.05;100.00;98846.38;5033843;28;20140;-69
2022/03/19 07:56:56;;;;;;;9.73;3.70;;;;;;;4.11;100.00;98851.06;5032711;28;20031;-71
2022/03/19 07:59:22;;;;;;;8.13;2.85;;;;;;;4.13;100.00;98844.63;5032886;28;20069;-69
2022/03/19 08:01:50;;;;;;;11.70;3.83;;;;;;;4.17;100.00;98847.81;5034451;28;20112;-71
2022/03/19 08:04:16;;;;;;;9.70;2.92;;;;;;;4.22;100.00;98844.72;5030336;28;20050;-71
2022/03/19 08:06:42;;;;;;;8.85;3.63;;;;;;;4.21;100.00;98838.59;5033283;28;20044;-70
2022/03/19 08:09:09;;;;;;;9.85;3.60;;;;;;;4.22;100.00;98840.25;5033154;28;20399;-70
2022/03/19 08:11:35;;;;;;;8.77;3.67;;;;;;;4.32;100.00;98840.16;5034791;28;20112;-70
2022/03/19 08:14:02;;;;;;;8.05;2.80;;;;;;;4.38;100.00;98834.28;5031818;28;20037;-69
2022/03/19 08:16:27;;;;;;;12.10;4.60;;;;;;;4.45;100.00;98832.69;5003301;28;20431;-71
2022/03/19 08:18:53;;;;;;;8.65;3.40;;;;;;;4.56;100.00;98839.56;5029679;28;20155;-71
2022/03/19 08:21:19;;;;;;;8.30;3.45;;;;;;;4.64;100.00;98826.38;5033222;28;20041;-70
2022/03/19 08:23:46;;;;;;;9.57;3.78;;;;;;;4.70;100.00;98836.38;5038450;28;20094;-69
2022/03/19 08:26:12;;;;;;;5.18;2.47;;;;;;;4.79;100.00;98831.97;5031447;28;20068;-71
2022/03/19 08:28:37;;;;;;;8.88;4.13;;;;;;;4.89;100.00;98822.91;5032808;28;20128;-69
2022/03/19 08:31:03;;;;;;;7.97;2.78;;;;;;;5.00;100.00;98825.31;5028570;28;20154;-69
2022/03/19 08:33:28;;;;;;;10.75;3.47;;;;;;;5.09;100.00;98828.03;5033753;28;20099;-70
2022/03/19 08:35:54;;;;;;;10.20;3.38;;;;;;;5.21;100.00;98821.47;5030697;28;20508;-70
2022/03/19 08:41:04;;;;;;;7.68;3.75;;;;;;;5.51;100.00;98831.59;5030154;28;20776;-70
2022/03/19 08:43:29;;;;;;;11.23;3.40;;;;;;;5.70;100.00;98819.91;5030375;28;20538;-70
2022/03/19 08:45:55;;;;;;;6.00;2.22;;;;;;;5.81;100.00;98827.56;5030795;28;20037;-69
2022/03/19 08:48:21;;;;;;;7.72;2.90;;;;;;;5.91;100.00;98823.97;5044307;28;20036;-70
2022/03/19 08:50:47;;;;;;;7.53;2.63;;;;;;;5.99;100.00;98822.19;5030970;28;20580;-71
2022/03/19 08:53:13;;;;;;;9.60;3.90;;;;;;;6.09;100.00;98814.06;5030579;28;20172;-70
2022/03/19 08:55:39;;;;;;;10.55;3.90;;;;;;;6.01;100.00;98814.06;5034077;28;20554;-70
2022/03/19 08:58:04;;;;;;;10.35;2.92;;;;;;;6.06;100.00;98815.22;5033579;28;20033;-70
2022/03/19 09:00:30;;;;;;;5.82;2.95;;;;;;;5.87;100.00;98821.63;5029063;28;20041;-71
2022/03/19 09:02:55;;;;;;;6.15;2.53;;;;;;;5.95;100.00;98815.53;5034086;28;20342;-71
2022/03/19 09:05:22;;;;;;;8.07;3.15;;;;;;;6.10;100.00;98808.59;5027987;28;20087;-70
2022/03/19 09:07:47;;;;;;;6.50;2.42;;;;;;;6.09;100.00;98814.91;5029267;28;20338;-69
2022/03/19 09:10:13;;;;;;;13.82;4.55;;;;;;;6.24;100.00;98812.44;4664521;28;9999982;-71
2022/03/19 09:12:39;;;;;;;6.93;3.17;;;;;;;6.32;100.00;98815.09;5028367;28;20048;-70
2022/03/19 09:15:08;;;;;;;10.57;3.30;;;;;;;6.49;100.00;98802.66;5030972;28;20033;-70
2022/03/19 09:17:36;;;;;;;5.97;2.03;;;;;;;6.55;100.00;98796.69;5001793;28;20369;-69
2022/03/19 09:20:03;;;;;;;8.52;3.33;;;;;;;6.64;100.00;98803.66;5031176;28;20143;-70
2022/03/19 09:22:32;;;;;;;7.10;2.30;;;;;;;6.65;100.00;98792.00;5031531;28;20365;-71
2022/03/19 09:24:58;;;;;;;6.68;2.95;;;;;;;6.62;100.00;98805.66;5030860;28;20076;-71
2022/03/19 09:27:24;;;;;;;10.13;3.25;;;;;;;6.74;100.00;98795.50;5031566;28;20115;-70
2022/03/19 09:29:49;;;;;;;7.07;2.60;;;;;;;6.87;100.00;98789.66;5031224;28;20441;-69
2022/03/19 09:32:18;;;;;;;6.18;2.30;;;;;;;6.98;96.21;98784.81;5032209;28;20055;-70
2022/03/19 09:34:47;;;;;;;4.85;1.95;;;;;;;6.98;96.84;98784.00;5030539;28;20149;-71
2022/03/19 09:37:15;;;;;;;7.93;2.67;;;;;;;7.13;96.96;98778.81;5034354;28;20451;-71
2022/03/19 09:39:41;;;;;;;3.53;1.67;;;;;;;7.18;92.42;98771.16;5028071;28;20042;-69
2022/03/19 09:42:11;;;;;;;5.32;1.92;;;;;;;7.38;94.19;98767.06;5030036;28;20367;-69
2022/03/19 09:44:36;;;;;;;10.88;2.70;;;;;;;7.57;93.46;98776.50;5031362;28;20123;-70
2022/03/19 09:47:04;;;;;;;5.55;2.72;;;;;;;7.60;90.67;98770.00;5031275;28;20112;-70
2022/03/19 09:49:31;;;;;;;5.85;2.20;;;;;;;7.60;88.24;98752.16;5028376;28;20040;-70
2022/03/19 09:51:58;;;;;;;8.48;2.60;;;;;;;7.49;90.61;98761.38;5030058;28;20033;-70
2022/03/19 09:54:23;;;;;;;8.88;2.65;;;;;;;7.73;95.27;98752.44;4999790;28;20063;-71
2022/03/19 09:56:49;;;;;;;9.35;2.45;;;;;;;7.99;90.78;98741.44;5031111;28;20041;-71
2022/03/19 09:59:15;;;;;;;6.50;2.70;;;;;;;8.26;91.73;98744.63;5029023;28;20037;-70
2022/03/19 10:01:40;;;;;;;5.47;2.33;;;;;;;8.32;86.14;98738.53;5027850;28;20115;-71
2022/03/19 10:04:11;;;;;;;7.25;2.40;;;;;;;8.54;89.46;98740.41;5028255;28;20044;-71
2022/03/19 10:09:40;;;;;;;2.88;1.50;;;;;;;8.74;72.28;98722.03;5030608;28;20373;-70
2022/03/19 10:12:11;;;;;;;7.22;2.40;;;;;;;9.00;71.91;98726.94;5031549;28;20056;-70
2022/03/19 10:14:37;;;;;;;6.53;2.50;;;;;;;9.12;62.76;98719.31;5032857;28;20053;-69
2022/03/19 10:17:04;;;;;;;6.95;1.95;;;;;;;9.32;57.07;98714.22;5030243;28;20424;-70
2022/03/19 10:19:29;;;;;;;7.50;2.22;;;;;;;9.35;51.32;98703.19;5030386;28;20036;-72
2022/03/19 10:22:06;;;;;;;6.65;2.17;;;;;;;9.64;50.69;98707.63;5032469;28;20037;-70
2022/03/19 10:24:36;;;;;;;4.20;1.83;;;;;;;9.91;48.98;98698.91;5030684;28;20041;-71
2022/03/19 10:27:02;;;;;;;4.83;2.40;;;;;;;10.67;48.80;98687.69;5031900;28;20426;-70
2022/03/19 10:29:31;;;;;;;3.72;1.50;;;;;;;11.85;43.81;98684.78;5029770;28;20044;-70
2022/03/19 10:32:03;;;;;;;3.83;1.90;;;;;;;12.85;37.69;98691.03;5032057;28;20320;-70
2022/03/19 10:34:30;;;;;;;5.63;1.67;;;;;;;13.77;32.75;98689.09;5030150;28;20033;-70
2022/03/19 10:36:56;;;;;;;2.65;1.20;;;;;;;15.43;30.30;98673.25;5032786;28;20033;-71
2022/03/19 10:39:27;;;;;;;3.03;1.05;;;;;;;15.64;29.95;98673.81;5029046;28;20163;-71
2022/03/19 10:41:57;;;;;;;4.78;1.40;;;;;;;16.54;27.84;98652.97;5030967;28;20043;-71
2022/03/19 10:44:25;;;;;;;3.10;1.30;;;;;;;17.07;26.82;98670.19;5028018;28;20032;-71
2022/03/19 10:46:59;;;;;;;5.80;1.77;;;;;;;18.49;27.37;98661.31;5030619;28;20059;-71
2022/03/19 10:49:27;;;;;;;5.80;1.98;;;;;;;19.00;24.92;98649.38;5029063;28;20400;-72
2022/03/19 10:51:55;;;;;;;4.18;1.50;;;;;;;20.15;24.23;98661.09;5029100;28;20392;-71
2022/03/19 10:54:22;;;;;;;3.97;1.48;;;;;;;20.49;23.01;98637.25;5003855;28;20045;-72
2022/03/19 10:56:49;;;;;;;3.28;1.33;;;;;;;21.00;20.79;98631.31;5029322;28;20037;-71
2022/03/19 10:59:15;;;;;;;3.97;1.30;;;;;;;20.57;20.08;98636.75;5027363;28;21022;-71
2022/03/19 11:01:41;;;;;;;5.70;1.30;;;;;;;19.24;21.51;98646.44;5030202;28;20037;-71
2022/03/19 11:04:09;;;;;;;2.60;1.15;;;;;;;20.11;22.01;98626.53;5029343;28;20125;-70
2022/03/19 11:06:37;;;;;;;6.13;1.55;;;;;;;22.23;21.20;98625.25;5028011;28;20676;-71
2022/03/19 11:09:06;;;;;;;5.93;1.60;;;;;;;21.95;20.67;98619.22;5027304;28;20048;-70
2022/03/19 11:11:39;;;;;;;4.38;1.38;;;;;;;22.80;18.99;98597.69;5029342;28;20033;-71
2022/03/19 11:14:07;;;;;;;7.97;1.80;;;;;;;23.87;18.41;98600.00;5030315;28;20032;-71
2022/03/19 11:16:36;;;;;;;2.97;1.30;;;;;;;24.49;17.35;98588.63;5028800;28;20473;-71
2022/03/19 11:19:03;;;;;;;5.63;1.27;;;;;;;24.06;17.70;98597.44;5030329;28;20029;-71
2022/03/19 11:21:31;;;;;;;4.82;3.08;;;;;;;24.23;16.92;98588.00;5030554;28;20045;-72
2022/03/19 11:24:10;;;;;;;3.25;0.90;;;;;;;23.54;17.35;98587.88;5030395;28;20067;-73
2022/03/19 11:26:37;;;;;;;2.88;1.00;;;;;;;24.23;16.03;98588.00;5030548;28;20041;-71
2022/03/19 11:29:05;;;;;;;3.42;1.02;;;;;;;23.32;15.80;98588.25;5027499;28;20120;-71
2022/03/19 11:31:32;;;;;;;3.10;1.20;;;;;;;24.51;15.58;98568.09;5029153;28;20076;-73
2022/03/19 11:34:15;;;;;;;2.30;1.00;;;;;;;23.27;15.75;98584.75;5028221;28;20249;-71
2022/03/19 11:36:54;;;;;;;2.60;1.00;;;;;;;23.92;15.48;98588.22;5031853;28;20094;-71
2022/03/19 11:39:19;;;;;;;3.25;0.90;;;;;;;23.21;15.53;98577.66;5027315;28;20029;-71
2022/03/19 11:41:49;;;;;;;3.40;1.10;;;;;;;24.63;15.08;98545.81;5028594;28;20065;-71
2022/03/19 11:44:20;;;;;;;2.70;0.98;;;;;;;23.66;15.21;98548.47;5029123;28;20656;-71
2022/03/19 11:47:00;;;;;;;3.33;0.90;;;;;;;25.13;14.59;98538.97;5030588;28;20043;-73